sensor_id;sensor_type;location;lat;lon;timestamp;P1;durP1;ratioP1;P2;durP2;ratioP2
25123;SDS011;13104;51.030;4.686;2022-12-10T00:00:41;51.55;;;22.15;;
25123;SDS011;13104;51.030;4.686;2022-12-10T00:03:07;52.80;;;23.58;;
25123;SDS011;13104;51.030;4.686;2022-12-10T00:05:34;49.92;;;22.10;;
25123;SDS011;13104;51.030;4.686;2022-12-10T00:08:00;49.97;;;22.33;;
25123;SDS011;13104;51.030;4.686;2022-12-10T00:10:26;51.40;;;22.55;;
25123;SDS011;13104;51.030;4.686;2022-12-10T00:12:52;53.05;;;21.83;;
25123;SDS011;13104;51.030;4.686;2022-12-10T00:15:18;53.95;;;23.73;;
25123;SDS011;13104;51.030;4.686;2022-12-10T00:17:44;45.95;;;21.90;;
25123;SDS011;13104;51.030;4.686;2022-12-10T00:20:10;56.83;;;22.92;;
25123;SDS011;13104;51.030;4.686;2022-12-10T00:22:36;50.90;;;22.85;;
25123;SDS011;13104;51.030;4.686;2022-12-10T00:25:03;48.20;;;21.77;;
25123;SDS011;13104;51.030;4.686;2022-12-10T00:27:30;50.38;;;21.95;;
25123;SDS011;13104;51.030;4.686;2022-12-10T00:29:56;47.55;;;22.65;;
25123;SDS011;13104;51.030;4.686;2022-12-10T00:32:22;49.65;;;22.73;;
25123;SDS011;13104;51.030;4.686;2022-12-10T00:34:48;51.63;;;21.55;;
25123;SDS011;13104;51.030;4.686;2022-12-10T00:37:14;51.08;;;21.77;;
25123;SDS011;13104;51.030;4.686;2022-12-10T00:39:40;47.20;;;21.63;;
25123;SDS011;13104;51.030;4.686;2022-12-10T00:42:06;47.33;;;21.83;;
25123;SDS011;13104;51.030;4.686;2022-12-10T00:44:32;47.95;;;22.42;;
25123;SDS011;13104;51.030;4.686;2022-12-10T00:46:59;49.83;;;21.48;;
25123;SDS011;13104;51.030;4.686;2022-12-10T00:49:25;47.28;;;21.05;;
25123;SDS011;13104;51.030;4.686;2022-12-10T00:51:51;56.45;;;22.38;;
25123;SDS011;13104;51.030;4.686;2022-12-10T00:54:17;52.28;;;23.25;;
25123;SDS011;13104;51.030;4.686;2022-12-10T00:56:43;51.28;;;22.52;;
25123;SDS011;13104;51.030;4.686;2022-12-10T00:59:09;57.50;;;22.55;;
25123;SDS011;13104;51.030;4.686;2022-12-10T01:01:40;54.83;;;22.95;;
25123;SDS011;13104;51.030;4.686;2022-12-10T01:04:07;53.45;;;24.17;;
25123;SDS011;13104;51.030;4.686;2022-12-10T01:06:36;52.95;;;24.48;;
25123;SDS011;13104;51.030;4.686;2022-12-10T01:09:03;59.15;;;25.15;;
25123;SDS011;13104;51.030;4.686;2022-12-10T01:11:31;53.00;;;25.02;;
25123;SDS011;13104;51.030;4.686;2022-12-10T01:13:58;54.97;;;25.02;;
25123;SDS011;13104;51.030;4.686;2022-12-10T01:16:24;56.85;;;25.95;;
25123;SDS011;13104;51.030;4.686;2022-12-10T01:18:54;60.70;;;25.80;;
25123;SDS011;13104;51.030;4.686;2022-12-10T01:21:21;58.80;;;25.27;;
25123;SDS011;13104;51.030;4.686;2022-12-10T01:23:48;61.17;;;24.80;;
25123;SDS011;13104;51.030;4.686;2022-12-10T01:26:16;56.15;;;23.77;;
25123;SDS011;13104;51.030;4.686;2022-12-10T01:28:42;57.28;;;23.48;;
25123;SDS011;13104;51.030;4.686;2022-12-10T01:31:11;52.30;;;23.52;;
25123;SDS011;13104;51.030;4.686;2022-12-10T01:33:37;59.60;;;23.75;;
25123;SDS011;13104;51.030;4.686;2022-12-10T01:36:05;50.20;;;23.27;;
25123;SDS011;13104;51.030;4.686;2022-12-10T01:38:32;50.05;;;22.75;;
25123;SDS011;13104;51.030;4.686;2022-12-10T01:40:59;51.97;;;22.73;;
25123;SDS011;13104;51.030;4.686;2022-12-10T01:43:25;58.13;;;22.85;;
25123;SDS011;13104;51.030;4.686;2022-12-10T01:45:52;50.30;;;23.05;;
25123;SDS011;13104;51.030;4.686;2022-12-10T01:48:19;62.30;;;23.67;;
25123;SDS011;13104;51.030;4.686;2022-12-10T01:50:45;55.65;;;24.00;;
25123;SDS011;13104;51.030;4.686;2022-12-10T01:53:11;55.15;;;25.15;;
25123;SDS011;13104;51.030;4.686;2022-12-10T01:55:48;57.08;;;23.35;;
25123;SDS011;13104;51.030;4.686;2022-12-10T01:58:18;52.13;;;25.10;;
25123;SDS011;13104;51.030;4.686;2022-12-10T02:00:46;56.90;;;24.85;;
25123;SDS011;13104;51.030;4.686;2022-12-10T02:03:19;61.78;;;26.13;;
25123;SDS011;13104;51.030;4.686;2022-12-10T02:06:02;59.88;;;24.25;;
25123;SDS011;13104;51.030;4.686;2022-12-10T02:11:27;58.28;;;24.80;;
25123;SDS011;13104;51.030;4.686;2022-12-10T02:14:03;60.10;;;26.35;;
25123;SDS011;13104;51.030;4.686;2022-12-10T02:16:34;56.95;;;24.65;;
25123;SDS011;13104;51.030;4.686;2022-12-10T02:19:21;51.92;;;24.63;;
25123;SDS011;13104;51.030;4.686;2022-12-10T02:21:49;59.00;;;24.88;;
25123;SDS011;13104;51.030;4.686;2022-12-10T02:24:18;56.28;;;24.42;;
25123;SDS011;13104;51.030;4.686;2022-12-10T02:26:56;58.95;;;23.23;;
25123;SDS011;13104;51.030;4.686;2022-12-10T02:29:25;57.97;;;24.15;;
25123;SDS011;13104;51.030;4.686;2022-12-10T02:34:47;54.95;;;24.15;;
25123;SDS011;13104;51.030;4.686;2022-12-10T02:37:23;55.10;;;23.42;;
25123;SDS011;13104;51.030;4.686;2022-12-10T02:39:52;55.90;;;24.48;;
25123;SDS011;13104;51.030;4.686;2022-12-10T02:42:20;59.08;;;24.52;;
25123;SDS011;13104;51.030;4.686;2022-12-10T02:44:47;59.53;;;25.08;;
25123;SDS011;13104;51.030;4.686;2022-12-10T02:47:15;56.28;;;25.30;;
25123;SDS011;13104;51.030;4.686;2022-12-10T02:49:42;52.92;;;23.88;;
25123;SDS011;13104;51.030;4.686;2022-12-10T02:52:14;55.70;;;24.80;;
25123;SDS011;13104;51.030;4.686;2022-12-10T02:54:47;58.80;;;23.50;;
25123;SDS011;13104;51.030;4.686;2022-12-10T03:04:52;57.97;;;25.38;;
25123;SDS011;13104;51.030;4.686;2022-12-10T03:09:56;52.10;;;23.50;;
25123;SDS011;13104;51.030;4.686;2022-12-10T03:12:25;53.30;;;22.85;;
25123;SDS011;13104;51.030;4.686;2022-12-10T03:14:53;60.47;;;24.77;;
25123;SDS011;13104;51.030;4.686;2022-12-10T03:17:23;64.70;;;25.45;;
25123;SDS011;13104;51.030;4.686;2022-12-10T03:19:50;64.68;;;25.33;;
25123;SDS011;13104;51.030;4.686;2022-12-10T03:22:17;63.10;;;26.15;;
25123;SDS011;13104;51.030;4.686;2022-12-10T03:24:44;63.70;;;27.48;;
25123;SDS011;13104;51.030;4.686;2022-12-10T03:27:11;60.13;;;25.63;;
25123;SDS011;13104;51.030;4.686;2022-12-10T03:29:39;66.40;;;27.40;;
25123;SDS011;13104;51.030;4.686;2022-12-10T03:32:06;71.15;;;29.15;;
25123;SDS011;13104;51.030;4.686;2022-12-10T03:34:33;65.18;;;27.65;;
25123;SDS011;13104;51.030;4.686;2022-12-10T03:37:01;70.82;;;28.75;;
25123;SDS011;13104;51.030;4.686;2022-12-10T03:39:27;71.93;;;29.27;;
25123;SDS011;13104;51.030;4.686;2022-12-10T03:41:53;71.65;;;28.60;;
25123;SDS011;13104;51.030;4.686;2022-12-10T03:44:28;73.68;;;29.70;;
25123;SDS011;13104;51.030;4.686;2022-12-10T03:46:55;72.25;;;29.30;;
25123;SDS011;13104;51.030;4.686;2022-12-10T03:49:21;65.97;;;28.42;;
25123;SDS011;13104;51.030;4.686;2022-12-10T03:51:47;80.55;;;30.23;;
25123;SDS011;13104;51.030;4.686;2022-12-10T03:54:13;83.50;;;31.65;;
25123;SDS011;13104;51.030;4.686;2022-12-10T03:56:39;74.07;;;30.23;;
25123;SDS011;13104;51.030;4.686;2022-12-10T03:59:05;81.07;;;31.65;;
25123;SDS011;13104;51.030;4.686;2022-12-10T04:01:32;78.32;;;30.65;;
25123;SDS011;13104;51.030;4.686;2022-12-10T04:03:58;73.68;;;30.08;;
25123;SDS011;13104;51.030;4.686;2022-12-10T04:06:24;78.43;;;30.83;;
25123;SDS011;13104;51.030;4.686;2022-12-10T04:08:51;87.07;;;29.77;;
25123;SDS011;13104;51.030;4.686;2022-12-10T04:11:17;78.60;;;30.85;;
25123;SDS011;13104;51.030;4.686;2022-12-10T04:13:43;82.88;;;29.80;;
25123;SDS011;13104;51.030;4.686;2022-12-10T04:16:29;79.10;;;31.13;;
25123;SDS011;13104;51.030;4.686;2022-12-10T04:19:01;77.65;;;29.27;;
25123;SDS011;13104;51.030;4.686;2022-12-10T04:21:28;71.60;;;29.83;;
25123;SDS011;13104;51.030;4.686;2022-12-10T04:24:14;71.32;;;29.23;;
25123;SDS011;13104;51.030;4.686;2022-12-10T04:27:01;75.40;;;29.45;;
25123;SDS011;13104;51.030;4.686;2022-12-10T04:29:28;83.70;;;30.88;;
25123;SDS011;13104;51.030;4.686;2022-12-10T04:31:56;84.15;;;30.38;;
25123;SDS011;13104;51.030;4.686;2022-12-10T04:34:22;73.40;;;29.67;;
25123;SDS011;13104;51.030;4.686;2022-12-10T04:36:49;83.13;;;30.65;;
25123;SDS011;13104;51.030;4.686;2022-12-10T04:39:15;82.45;;;30.98;;
25123;SDS011;13104;51.030;4.686;2022-12-10T04:41:43;88.57;;;31.85;;
25123;SDS011;13104;51.030;4.686;2022-12-10T04:44:10;73.15;;;29.25;;
25123;SDS011;13104;51.030;4.686;2022-12-10T04:46:36;71.90;;;29.48;;
25123;SDS011;13104;51.030;4.686;2022-12-10T04:49:03;87.53;;;34.25;;
25123;SDS011;13104;51.030;4.686;2022-12-10T04:51:29;88.00;;;31.27;;
25123;SDS011;13104;51.030;4.686;2022-12-10T04:53:56;88.65;;;31.67;;
25123;SDS011;13104;51.030;4.686;2022-12-10T04:56:22;78.43;;;29.90;;
25123;SDS011;13104;51.030;4.686;2022-12-10T04:58:48;79.05;;;29.67;;
25123;SDS011;13104;51.030;4.686;2022-12-10T05:01:14;81.10;;;31.33;;
25123;SDS011;13104;51.030;4.686;2022-12-10T05:03:41;80.07;;;30.67;;
25123;SDS011;13104;51.030;4.686;2022-12-10T05:06:08;77.55;;;30.13;;
25123;SDS011;13104;51.030;4.686;2022-12-10T05:08:35;80.63;;;31.38;;
25123;SDS011;13104;51.030;4.686;2022-12-10T05:11:05;72.38;;;26.80;;
25123;SDS011;13104;51.030;4.686;2022-12-10T05:13:32;76.22;;;29.73;;
25123;SDS011;13104;51.030;4.686;2022-12-10T05:15:59;81.25;;;30.63;;
25123;SDS011;13104;51.030;4.686;2022-12-10T05:18:26;80.43;;;30.83;;
25123;SDS011;13104;51.030;4.686;2022-12-10T05:20:52;80.10;;;30.73;;
25123;SDS011;13104;51.030;4.686;2022-12-10T05:23:18;80.03;;;31.35;;
25123;SDS011;13104;51.030;4.686;2022-12-10T05:25:57;84.22;;;30.73;;
25123;SDS011;13104;51.030;4.686;2022-12-10T05:28:24;78.13;;;31.15;;
25123;SDS011;13104;51.030;4.686;2022-12-10T05:30:50;85.15;;;31.42;;
25123;SDS011;13104;51.030;4.686;2022-12-10T05:33:16;85.70;;;32.42;;
25123;SDS011;13104;51.030;4.686;2022-12-10T05:35:42;87.35;;;33.30;;
25123;SDS011;13104;51.030;4.686;2022-12-10T05:38:09;93.93;;;33.17;;
25123;SDS011;13104;51.030;4.686;2022-12-10T05:40:38;85.85;;;33.95;;
25123;SDS011;13104;51.030;4.686;2022-12-10T05:43:04;90.18;;;34.08;;
25123;SDS011;13104;51.030;4.686;2022-12-10T05:45:33;89.65;;;33.78;;
25123;SDS011;13104;51.030;4.686;2022-12-10T05:48:00;97.95;;;35.03;;
25123;SDS011;13104;51.030;4.686;2022-12-10T05:50:26;92.07;;;33.92;;
25123;SDS011;13104;51.030;4.686;2022-12-10T05:52:52;89.95;;;34.08;;
25123;SDS011;13104;51.030;4.686;2022-12-10T05:55:18;85.00;;;33.10;;
25123;SDS011;13104;51.030;4.686;2022-12-10T05:57:44;86.25;;;34.63;;
25123;SDS011;13104;51.030;4.686;2022-12-10T06:00:11;88.22;;;33.60;;
25123;SDS011;13104;51.030;4.686;2022-12-10T06:02:37;86.65;;;32.75;;
25123;SDS011;13104;51.030;4.686;2022-12-10T06:05:03;88.40;;;36.47;;
25123;SDS011;13104;51.030;4.686;2022-12-10T06:07:29;92.43;;;33.88;;
25123;SDS011;13104;51.030;4.686;2022-12-10T06:09:56;85.30;;;34.85;;
25123;SDS011;13104;51.030;4.686;2022-12-10T06:12:22;88.95;;;32.70;;
25123;SDS011;13104;51.030;4.686;2022-12-10T06:14:48;77.57;;;31.00;;
25123;SDS011;13104;51.030;4.686;2022-12-10T06:17:15;90.63;;;34.00;;
25123;SDS011;13104;51.030;4.686;2022-12-10T06:19:41;87.45;;;34.30;;
25123;SDS011;13104;51.030;4.686;2022-12-10T06:22:07;87.85;;;35.08;;
25123;SDS011;13104;51.030;4.686;2022-12-10T06:24:33;89.68;;;33.97;;
25123;SDS011;13104;51.030;4.686;2022-12-10T06:26:59;89.35;;;34.67;;
25123;SDS011;13104;51.030;4.686;2022-12-10T06:29:25;89.43;;;35.78;;
25123;SDS011;13104;51.030;4.686;2022-12-10T06:31:51;84.97;;;34.40;;
25123;SDS011;13104;51.030;4.686;2022-12-10T06:34:17;86.75;;;33.85;;
25123;SDS011;13104;51.030;4.686;2022-12-10T06:36:44;88.53;;;36.13;;
25123;SDS011;13104;51.030;4.686;2022-12-10T06:39:10;92.25;;;35.38;;
25123;SDS011;13104;51.030;4.686;2022-12-10T06:41:36;91.13;;;38.80;;
25123;SDS011;13104;51.030;4.686;2022-12-10T06:44:02;85.95;;;33.50;;
25123;SDS011;13104;51.030;4.686;2022-12-10T06:46:28;95.20;;;37.10;;
25123;SDS011;13104;51.030;4.686;2022-12-10T06:48:54;101.88;;;38.15;;
25123;SDS011;13104;51.030;4.686;2022-12-10T06:51:20;100.38;;;38.72;;
25123;SDS011;13104;51.030;4.686;2022-12-10T06:53:46;92.78;;;36.53;;
25123;SDS011;13104;51.030;4.686;2022-12-10T06:56:14;97.07;;;36.85;;
25123;SDS011;13104;51.030;4.686;2022-12-10T06:58:41;102.68;;;37.33;;
25123;SDS011;13104;51.030;4.686;2022-12-10T07:01:13;100.15;;;36.53;;
25123;SDS011;13104;51.030;4.686;2022-12-10T07:03:39;101.50;;;38.90;;
25123;SDS011;13104;51.030;4.686;2022-12-10T07:06:07;104.55;;;38.15;;
25123;SDS011;13104;51.030;4.686;2022-12-10T07:08:34;101.53;;;40.15;;
25123;SDS011;13104;51.030;4.686;2022-12-10T07:11:03;106.15;;;38.08;;
25123;SDS011;13104;51.030;4.686;2022-12-10T07:13:29;97.60;;;36.65;;
25123;SDS011;13104;51.030;4.686;2022-12-10T07:15:55;98.38;;;37.60;;
25123;SDS011;13104;51.030;4.686;2022-12-10T07:18:21;100.05;;;36.17;;
25123;SDS011;13104;51.030;4.686;2022-12-10T07:20:47;112.45;;;37.67;;
25123;SDS011;13104;51.030;4.686;2022-12-10T07:23:13;105.32;;;40.20;;
25123;SDS011;13104;51.030;4.686;2022-12-10T07:25:39;116.70;;;41.97;;
25123;SDS011;13104;51.030;4.686;2022-12-10T07:28:06;103.78;;;37.13;;
25123;SDS011;13104;51.030;4.686;2022-12-10T07:30:32;116.13;;;39.90;;
25123;SDS011;13104;51.030;4.686;2022-12-10T07:32:58;113.00;;;38.97;;
25123;SDS011;13104;51.030;4.686;2022-12-10T07:35:24;112.43;;;38.22;;
25123;SDS011;13104;51.030;4.686;2022-12-10T07:37:51;125.13;;;40.10;;
25123;SDS011;13104;51.030;4.686;2022-12-10T07:40:17;122.20;;;40.08;;
25123;SDS011;13104;51.030;4.686;2022-12-10T07:42:43;121.38;;;41.20;;
25123;SDS011;13104;51.030;4.686;2022-12-10T07:45:10;138.55;;;41.85;;
25123;SDS011;13104;51.030;4.686;2022-12-10T07:47:37;120.50;;;40.13;;
25123;SDS011;13104;51.030;4.686;2022-12-10T07:50:06;121.32;;;38.88;;
25123;SDS011;13104;51.030;4.686;2022-12-10T07:52:33;124.95;;;39.42;;
25123;SDS011;13104;51.030;4.686;2022-12-10T07:54:59;131.35;;;39.78;;
25123;SDS011;13104;51.030;4.686;2022-12-10T07:57:25;147.52;;;41.90;;
25123;SDS011;13104;51.030;4.686;2022-12-10T07:59:51;136.85;;;39.30;;
25123;SDS011;13104;51.030;4.686;2022-12-10T08:02:17;135.95;;;40.95;;
25123;SDS011;13104;51.030;4.686;2022-12-10T08:04:43;142.20;;;41.13;;
25123;SDS011;13104;51.030;4.686;2022-12-10T08:07:09;137.30;;;39.22;;
25123;SDS011;13104;51.030;4.686;2022-12-10T08:09:36;132.00;;;41.35;;
25123;SDS011;13104;51.030;4.686;2022-12-10T08:12:02;144.23;;;42.05;;
25123;SDS011;13104;51.030;4.686;2022-12-10T08:14:28;131.60;;;39.28;;
25123;SDS011;13104;51.030;4.686;2022-12-10T08:16:55;137.65;;;39.85;;
25123;SDS011;13104;51.030;4.686;2022-12-10T08:19:21;174.73;;;39.10;;
25123;SDS011;13104;51.030;4.686;2022-12-10T08:21:47;128.63;;;37.40;;
25123;SDS011;13104;51.030;4.686;2022-12-10T08:24:13;138.98;;;39.58;;
25123;SDS011;13104;51.030;4.686;2022-12-10T08:26:39;136.68;;;40.22;;
25123;SDS011;13104;51.030;4.686;2022-12-10T08:29:05;133.30;;;37.95;;
25123;SDS011;13104;51.030;4.686;2022-12-10T08:31:31;114.38;;;33.13;;
25123;SDS011;13104;51.030;4.686;2022-12-10T08:33:58;111.65;;;33.20;;
25123;SDS011;13104;51.030;4.686;2022-12-10T08:36:24;127.35;;;34.53;;
25123;SDS011;13104;51.030;4.686;2022-12-10T08:38:50;112.88;;;33.28;;
25123;SDS011;13104;51.030;4.686;2022-12-10T08:41:17;123.88;;;33.50;;
25123;SDS011;13104;51.030;4.686;2022-12-10T08:43:44;125.47;;;34.35;;
25123;SDS011;13104;51.030;4.686;2022-12-10T08:46:11;119.15;;;34.55;;
25123;SDS011;13104;51.030;4.686;2022-12-10T08:48:37;123.95;;;33.28;;
25123;SDS011;13104;51.030;4.686;2022-12-10T08:51:04;118.30;;;33.30;;
25123;SDS011;13104;51.030;4.686;2022-12-10T08:53:31;116.90;;;34.20;;
25123;SDS011;13104;51.030;4.686;2022-12-10T08:55:57;108.57;;;33.63;;
25123;SDS011;13104;51.030;4.686;2022-12-10T08:58:23;130.30;;;34.65;;
25123;SDS011;13104;51.030;4.686;2022-12-10T09:00:49;120.80;;;34.58;;
25123;SDS011;13104;51.030;4.686;2022-12-10T09:03:16;103.35;;;32.70;;
25123;SDS011;13104;51.030;4.686;2022-12-10T09:05:42;106.93;;;31.95;;
25123;SDS011;13104;51.030;4.686;2022-12-10T09:08:09;100.57;;;30.77;;
25123;SDS011;13104;51.030;4.686;2022-12-10T09:10:38;102.97;;;31.38;;
25123;SDS011;13104;51.030;4.686;2022-12-10T09:13:05;108.70;;;32.00;;
25123;SDS011;13104;51.030;4.686;2022-12-10T09:15:31;107.38;;;33.75;;
25123;SDS011;13104;51.030;4.686;2022-12-10T09:17:57;98.03;;;30.60;;
25123;SDS011;13104;51.030;4.686;2022-12-10T09:20:23;102.13;;;30.58;;
25123;SDS011;13104;51.030;4.686;2022-12-10T09:22:50;100.03;;;30.20;;
25123;SDS011;13104;51.030;4.686;2022-12-10T09:25:16;92.82;;;30.25;;
25123;SDS011;13104;51.030;4.686;2022-12-10T09:27:46;95.93;;;28.90;;
25123;SDS011;13104;51.030;4.686;2022-12-10T09:30:17;88.82;;;29.95;;
25123;SDS011;13104;51.030;4.686;2022-12-10T09:32:44;90.25;;;29.52;;
25123;SDS011;13104;51.030;4.686;2022-12-10T09:35:11;95.13;;;30.02;;
25123;SDS011;13104;51.030;4.686;2022-12-10T09:37:46;92.38;;;30.05;;
25123;SDS011;13104;51.030;4.686;2022-12-10T09:40:17;91.35;;;30.33;;
25123;SDS011;13104;51.030;4.686;2022-12-10T09:45:38;83.72;;;28.92;;
25123;SDS011;13104;51.030;4.686;2022-12-10T09:48:15;94.57;;;29.35;;
25123;SDS011;13104;51.030;4.686;2022-12-10T09:53:15;88.68;;;27.75;;
25123;SDS011;13104;51.030;4.686;2022-12-10T09:55:45;91.22;;;27.88;;
25123;SDS011;13104;51.030;4.686;2022-12-10T09:58:21;95.57;;;28.65;;
25123;SDS011;13104;51.030;4.686;2022-12-10T10:00:49;83.13;;;27.60;;
25123;SDS011;13104;51.030;4.686;2022-12-10T10:03:17;91.78;;;29.35;;
25123;SDS011;13104;51.030;4.686;2022-12-10T10:05:44;95.80;;;29.23;;
25123;SDS011;13104;51.030;4.686;2022-12-10T10:08:13;93.88;;;29.77;;
25123;SDS011;13104;51.030;4.686;2022-12-10T10:10:40;101.28;;;29.60;;
25123;SDS011;13104;51.030;4.686;2022-12-10T10:15:34;99.32;;;30.98;;
25123;SDS011;13104;51.030;4.686;2022-12-10T10:20:46;95.95;;;29.50;;
25123;SDS011;13104;51.030;4.686;2022-12-10T10:23:13;91.15;;;28.98;;
25123;SDS011;13104;51.030;4.686;2022-12-10T10:25:41;91.38;;;29.45;;
25123;SDS011;13104;51.030;4.686;2022-12-10T10:28:09;90.45;;;28.73;;
25123;SDS011;13104;51.030;4.686;2022-12-10T10:30:37;101.63;;;31.55;;
25123;SDS011;13104;51.030;4.686;2022-12-10T10:33:07;95.53;;;29.80;;
25123;SDS011;13104;51.030;4.686;2022-12-10T10:35:40;85.22;;;29.42;;
25123;SDS011;13104;51.030;4.686;2022-12-10T10:38:07;87.30;;;29.35;;
25123;SDS011;13104;51.030;4.686;2022-12-10T10:40:42;85.82;;;28.25;;
25123;SDS011;13104;51.030;4.686;2022-12-10T10:43:18;86.72;;;27.95;;
25123;SDS011;13104;51.030;4.686;2022-12-10T10:45:49;92.35;;;29.60;;
25123;SDS011;13104;51.030;4.686;2022-12-10T10:48:18;82.95;;;27.42;;
25123;SDS011;13104;51.030;4.686;2022-12-10T10:50:50;92.07;;;30.00;;
25123;SDS011;13104;51.030;4.686;2022-12-10T10:55:49;85.55;;;28.55;;
25123;SDS011;13104;51.030;4.686;2022-12-10T10:58:25;93.38;;;28.20;;
25123;SDS011;13104;51.030;4.686;2022-12-10T11:01:03;92.30;;;30.73;;
25123;SDS011;13104;51.030;4.686;2022-12-10T11:03:35;91.63;;;28.90;;
25123;SDS011;13104;51.030;4.686;2022-12-10T11:06:06;90.97;;;29.80;;
25123;SDS011;13104;51.030;4.686;2022-12-10T11:08:34;87.10;;;29.02;;
25123;SDS011;13104;51.030;4.686;2022-12-10T11:11:17;83.82;;;27.63;;
25123;SDS011;13104;51.030;4.686;2022-12-10T11:13:48;85.03;;;28.83;;
25123;SDS011;13104;51.030;4.686;2022-12-10T11:16:19;77.03;;;27.45;;
25123;SDS011;13104;51.030;4.686;2022-12-10T11:19:00;78.20;;;27.63;;
25123;SDS011;13104;51.030;4.686;2022-12-10T11:21:29;86.20;;;28.30;;
25123;SDS011;13104;51.030;4.686;2022-12-10T11:23:57;86.88;;;29.23;;
25123;SDS011;13104;51.030;4.686;2022-12-10T11:34:51;90.97;;;29.83;;
25123;SDS011;13104;51.030;4.686;2022-12-10T11:37:30;90.90;;;29.65;;
25123;SDS011;13104;51.030;4.686;2022-12-10T11:45:22;97.35;;;32.15;;
25123;SDS011;13104;51.030;4.686;2022-12-10T11:50:44;92.00;;;31.50;;
25123;SDS011;13104;51.030;4.686;2022-12-10T11:58:35;93.18;;;31.73;;
25123;SDS011;13104;51.030;4.686;2022-12-10T12:01:11;85.22;;;29.80;;
25123;SDS011;13104;51.030;4.686;2022-12-10T12:11:34;86.53;;;28.83;;
25123;SDS011;13104;51.030;4.686;2022-12-10T12:14:19;88.68;;;30.77;;
25123;SDS011;13104;51.030;4.686;2022-12-10T12:16:49;95.43;;;30.15;;
25123;SDS011;13104;51.030;4.686;2022-12-10T12:19:19;112.55;;;35.40;;
25123;SDS011;13104;51.030;4.686;2022-12-10T12:21:48;101.50;;;33.95;;
25123;SDS011;13104;51.030;4.686;2022-12-10T12:24:16;101.85;;;34.58;;
25123;SDS011;13104;51.030;4.686;2022-12-10T12:26:48;98.50;;;33.28;;
25123;SDS011;13104;51.030;4.686;2022-12-10T12:29:26;93.78;;;33.20;;
25123;SDS011;13104;51.030;4.686;2022-12-10T12:31:54;100.15;;;33.80;;
25123;SDS011;13104;51.030;4.686;2022-12-10T12:34:27;101.55;;;34.17;;
25123;SDS011;13104;51.030;4.686;2022-12-10T12:36:54;97.47;;;32.22;;
25123;SDS011;13104;51.030;4.686;2022-12-10T12:39:29;98.55;;;32.97;;
25123;SDS011;13104;51.030;4.686;2022-12-10T12:44:38;99.70;;;32.72;;
25123;SDS011;13104;51.030;4.686;2022-12-10T12:49:44;105.85;;;35.78;;
25123;SDS011;13104;51.030;4.686;2022-12-10T12:54:56;104.70;;;34.53;;
25123;SDS011;13104;51.030;4.686;2022-12-10T12:57:47;99.13;;;35.40;;
25123;SDS011;13104;51.030;4.686;2022-12-10T13:00:14;105.70;;;36.03;;
25123;SDS011;13104;51.030;4.686;2022-12-10T13:05:22;99.60;;;35.03;;
25123;SDS011;13104;51.030;4.686;2022-12-10T13:10:53;108.03;;;36.15;;
25123;SDS011;13104;51.030;4.686;2022-12-10T13:13:25;107.25;;;33.20;;
25123;SDS011;13104;51.030;4.686;2022-12-10T13:15:55;97.82;;;32.20;;
25123;SDS011;13104;51.030;4.686;2022-12-10T13:18:40;98.60;;;34.05;;
25123;SDS011;13104;51.030;4.686;2022-12-10T13:21:25;114.15;;;36.75;;
25123;SDS011;13104;51.030;4.686;2022-12-10T13:23:54;102.03;;;34.38;;
25123;SDS011;13104;51.030;4.686;2022-12-10T13:29:45;92.97;;;33.53;;
25123;SDS011;13104;51.030;4.686;2022-12-10T13:32:19;100.80;;;34.35;;
25123;SDS011;13104;51.030;4.686;2022-12-10T13:37:35;107.88;;;36.15;;
25123;SDS011;13104;51.030;4.686;2022-12-10T13:42:33;100.03;;;34.60;;
25123;SDS011;13104;51.030;4.686;2022-12-10T13:52:55;93.57;;;33.78;;
25123;SDS011;13104;51.030;4.686;2022-12-10T14:00:41;90.53;;;33.30;;
25123;SDS011;13104;51.030;4.686;2022-12-10T14:08:20;101.43;;;35.10;;
25123;SDS011;13104;51.030;4.686;2022-12-10T14:10:48;100.95;;;34.28;;
25123;SDS011;13104;51.030;4.686;2022-12-10T14:13:16;107.82;;;35.50;;
25123;SDS011;13104;51.030;4.686;2022-12-10T14:15:47;99.80;;;35.40;;
25123;SDS011;13104;51.030;4.686;2022-12-10T14:18:16;94.90;;;32.47;;
25123;SDS011;13104;51.030;4.686;2022-12-10T14:20:44;85.15;;;30.52;;
25123;SDS011;13104;51.030;4.686;2022-12-10T14:25:59;108.63;;;36.67;;
25123;SDS011;13104;51.030;4.686;2022-12-10T14:28:29;101.40;;;33.97;;
25123;SDS011;13104;51.030;4.686;2022-12-10T14:30:58;106.22;;;35.10;;
25123;SDS011;13104;51.030;4.686;2022-12-10T14:33:24;96.63;;;34.63;;
25123;SDS011;13104;51.030;4.686;2022-12-10T14:35:51;96.60;;;32.75;;
25123;SDS011;13104;51.030;4.686;2022-12-10T14:38:19;99.30;;;33.17;;
25123;SDS011;13104;51.030;4.686;2022-12-10T14:40:46;101.78;;;32.15;;
25123;SDS011;13104;51.030;4.686;2022-12-10T14:43:15;92.82;;;34.72;;
25123;SDS011;13104;51.030;4.686;2022-12-10T14:45:50;103.00;;;34.63;;
25123;SDS011;13104;51.030;4.686;2022-12-10T14:48:18;92.85;;;34.03;;
25123;SDS011;13104;51.030;4.686;2022-12-10T14:50:45;99.60;;;31.73;;
25123;SDS011;13104;51.030;4.686;2022-12-10T14:53:32;93.25;;;32.30;;
25123;SDS011;13104;51.030;4.686;2022-12-10T14:55:59;93.97;;;31.63;;
25123;SDS011;13104;51.030;4.686;2022-12-10T15:00:56;87.97;;;30.58;;
25123;SDS011;13104;51.030;4.686;2022-12-10T15:03:26;92.53;;;31.67;;
25123;SDS011;13104;51.030;4.686;2022-12-10T15:05:53;101.32;;;31.27;;
25123;SDS011;13104;51.030;4.686;2022-12-10T15:08:20;86.13;;;30.15;;
25123;SDS011;13104;51.030;4.686;2022-12-10T15:10:49;96.55;;;31.00;;
25123;SDS011;13104;51.030;4.686;2022-12-10T15:13:18;80.25;;;29.02;;
25123;SDS011;13104;51.030;4.686;2022-12-10T15:15:47;106.60;;;34.03;;
25123;SDS011;13104;51.030;4.686;2022-12-10T15:18:18;101.85;;;34.22;;
25123;SDS011;13104;51.030;4.686;2022-12-10T15:20:50;85.65;;;28.17;;
25123;SDS011;13104;51.030;4.686;2022-12-10T15:28:40;83.75;;;29.85;;
25123;SDS011;13104;51.030;4.686;2022-12-10T15:33:47;91.07;;;33.92;;
25123;SDS011;13104;51.030;4.686;2022-12-10T15:36:18;98.15;;;34.05;;
25123;SDS011;13104;51.030;4.686;2022-12-10T15:38:45;90.32;;;29.55;;
25123;SDS011;13104;51.030;4.686;2022-12-10T15:44:16;74.97;;;28.45;;
25123;SDS011;13104;51.030;4.686;2022-12-10T15:46:46;81.35;;;29.30;;
25123;SDS011;13104;51.030;4.686;2022-12-10T15:49:13;74.22;;;25.58;;
25123;SDS011;13104;51.030;4.686;2022-12-10T15:51:44;69.75;;;24.88;;
25123;SDS011;13104;51.030;4.686;2022-12-10T15:56:50;63.60;;;24.30;;
25123;SDS011;13104;51.030;4.686;2022-12-10T15:59:21;70.53;;;24.67;;
25123;SDS011;13104;51.030;4.686;2022-12-10T16:01:48;64.75;;;22.73;;
25123;SDS011;13104;51.030;4.686;2022-12-10T16:04:18;63.85;;;24.58;;
25123;SDS011;13104;51.030;4.686;2022-12-10T16:06:45;62.15;;;22.92;;
25123;SDS011;13104;51.030;4.686;2022-12-10T16:09:13;67.05;;;26.42;;
25123;SDS011;13104;51.030;4.686;2022-12-10T16:11:40;62.83;;;23.98;;
25123;SDS011;13104;51.030;4.686;2022-12-10T16:14:07;64.93;;;23.88;;
25123;SDS011;13104;51.030;4.686;2022-12-10T16:16:39;62.45;;;23.65;;
25123;SDS011;13104;51.030;4.686;2022-12-10T16:19:10;63.13;;;22.65;;
25123;SDS011;13104;51.030;4.686;2022-12-10T16:21:38;59.00;;;21.13;;
25123;SDS011;13104;51.030;4.686;2022-12-10T16:24:06;61.90;;;23.25;;